sensor_id;sensor_type;location;lat;lon;timestamp;temperature;humidity
16417;DHT22;8317;52.186;5.688;2023-05-27T00:01:52;9.80;86.20
16417;DHT22;8317;52.186;5.688;2023-05-27T00:04:18;9.70;92.80
16417;DHT22;8317;52.186;5.688;2023-05-27T00:06:47;9.70;96.20
16417;DHT22;8317;52.186;5.688;2023-05-27T00:09:14;9.60;99.90
16417;DHT22;8317;52.186;5.688;2023-05-27T00:11:41;9.60;99.90
16417;DHT22;8317;52.186;5.688;2023-05-27T00:14:08;9.60;97.90
16417;DHT22;8317;52.186;5.688;2023-05-27T00:16:35;9.50;99.90
16417;DHT22;8317;52.186;5.688;2023-05-27T00:19:03;9.40;99.90
16417;DHT22;8317;52.186;5.688;2023-05-27T00:21:30;9.40;99.90
16417;DHT22;8317;52.186;5.688;2023-05-27T00:23:59;9.40;99.90
16417;DHT22;8317;52.186;5.688;2023-05-27T00:26:26;9.40;99.90
16417;DHT22;8317;52.186;5.688;2023-05-27T00:28:53;9.40;99.90
16417;DHT22;8317;52.186;5.688;2023-05-27T00:31:19;9.30;99.90
16417;DHT22;8317;52.186;5.688;2023-05-27T00:33:46;9.30;99.90
16417;DHT22;8317;52.186;5.688;2023-05-27T00:36:13;9.40;99.90
16417;DHT22;8317;52.186;5.688;2023-05-27T00:38:40;9.50;99.90
16417;DHT22;8317;52.186;5.688;2023-05-27T00:41:10;9.40;99.90
16417;DHT22;8317;52.186;5.688;2023-05-27T00:43:38;9.30;99.90
16417;DHT22;8317;52.186;5.688;2023-05-27T00:46:05;9.30;99.90
16417;DHT22;8317;52.186;5.688;2023-05-27T00:48:32;9.20;99.90
16417;DHT22;8317;52.186;5.688;2023-05-27T00:50:58;9.20;99.90
16417;DHT22;8317;52.186;5.688;2023-05-27T00:53:26;9.10;99.90
16417;DHT22;8317;52.186;5.688;2023-05-27T00:55:53;9.10;99.90
16417;DHT22;8317;52.186;5.688;2023-05-27T00:58:21;9.10;99.90
16417;DHT22;8317;52.186;5.688;2023-05-27T01:00:49;9.00;99.90
16417;DHT22;8317;52.186;5.688;2023-05-27T01:03:16;9.00;99.90
16417;DHT22;8317;52.186;5.688;2023-05-27T01:05:45;9.00;99.90
16417;DHT22;8317;52.186;5.688;2023-05-27T01:08:23;9.00;99.90
16417;DHT22;8317;52.186;5.688;2023-05-27T01:10:52;8.90;99.90
16417;DHT22;8317;52.186;5.688;2023-05-27T01:13:29;8.90;99.90
16417;DHT22;8317;52.186;5.688;2023-05-27T01:16:00;8.90;99.90
16417;DHT22;8317;52.186;5.688;2023-05-27T01:18:28;8.90;99.90
16417;DHT22;8317;52.186;5.688;2023-05-27T01:21:02;9.00;99.90
16417;DHT22;8317;52.186;5.688;2023-05-27T01:23:31;8.90;99.90
16417;DHT22;8317;52.186;5.688;2023-05-27T01:25:58;8.80;99.90
16417;DHT22;8317;52.186;5.688;2023-05-27T01:28:26;8.80;99.90
16417;DHT22;8317;52.186;5.688;2023-05-27T01:30:55;8.90;99.90
16417;DHT22;8317;52.186;5.688;2023-05-27T01:33:25;8.90;99.90
16417;DHT22;8317;52.186;5.688;2023-05-27T01:35:59;9.00;99.90
16417;DHT22;8317;52.186;5.688;2023-05-27T01:38:29;9.00;99.90
16417;DHT22;8317;52.186;5.688;2023-05-27T01:40:59;8.90;99.90
16417;DHT22;8317;52.186;5.688;2023-05-27T01:43:27;8.90;99.90
16417;DHT22;8317;52.186;5.688;2023-05-27T01:45:54;8.90;99.90
16417;DHT22;8317;52.186;5.688;2023-05-27T01:48:21;8.90;99.90
16417;DHT22;8317;52.186;5.688;2023-05-27T01:50:48;8.90;99.90
16417;DHT22;8317;52.186;5.688;2023-05-27T01:53:15;8.90;99.90
16417;DHT22;8317;52.186;5.688;2023-05-27T01:55:42;8.90;99.90
16417;DHT22;8317;52.186;5.688;2023-05-27T01:58:10;8.80;99.90
16417;DHT22;8317;52.186;5.688;2023-05-27T02:00:37;8.70;99.90
16417;DHT22;8317;52.186;5.688;2023-05-27T02:03:04;8.70;99.90
16417;DHT22;8317;52.186;5.688;2023-05-27T02:05:30;8.70;99.90
16417;DHT22;8317;52.186;5.688;2023-05-27T02:07:57;8.60;99.90
16417;DHT22;8317;52.186;5.688;2023-05-27T02:10:24;8.70;99.90
16417;DHT22;8317;52.186;5.688;2023-05-27T02:12:51;8.60;99.90
16417;DHT22;8317;52.186;5.688;2023-05-27T02:15:20;8.60;99.90
16417;DHT22;8317;52.186;5.688;2023-05-27T02:17:49;8.50;99.90
16417;DHT22;8317;52.186;5.688;2023-05-27T02:20:20;8.50;99.90
16417;DHT22;8317;52.186;5.688;2023-05-27T02:22:49;8.50;99.90
16417;DHT22;8317;52.186;5.688;2023-05-27T02:25:16;8.50;99.90
16417;DHT22;8317;52.186;5.688;2023-05-27T02:27:43;8.60;99.90
16417;DHT22;8317;52.186;5.688;2023-05-27T02:30:14;8.50;99.90
16417;DHT22;8317;52.186;5.688;2023-05-27T02:32:42;8.40;99.90
16417;DHT22;8317;52.186;5.688;2023-05-27T02:35:12;8.40;99.90
16417;DHT22;8317;52.186;5.688;2023-05-27T02:37:39;8.40;99.90
16417;DHT22;8317;52.186;5.688;2023-05-27T02:40:07;8.30;99.90
16417;DHT22;8317;52.186;5.688;2023-05-27T02:42:35;8.20;99.90
16417;DHT22;8317;52.186;5.688;2023-05-27T02:45:02;8.30;99.90
16417;DHT22;8317;52.186;5.688;2023-05-27T02:47:29;8.30;99.90
16417;DHT22;8317;52.186;5.688;2023-05-27T02:49:57;8.20;99.90
16417;DHT22;8317;52.186;5.688;2023-05-27T02:52:24;8.20;99.90
16417;DHT22;8317;52.186;5.688;2023-05-27T02:54:51;8.20;99.90
16417;DHT22;8317;52.186;5.688;2023-05-27T02:57:18;8.20;99.90
16417;DHT22;8317;52.186;5.688;2023-05-27T02:59:45;8.20;99.90
16417;DHT22;8317;52.186;5.688;2023-05-27T03:02:12;8.20;99.90
16417;DHT22;8317;52.186;5.688;2023-05-27T03:04:39;8.20;99.90
16417;DHT22;8317;52.186;5.688;2023-05-27T03:07:07;8.20;99.90
16417;DHT22;8317;52.186;5.688;2023-05-27T03:09:34;8.20;99.90
16417;DHT22;8317;52.186;5.688;2023-05-27T03:12:01;8.10;99.90
16417;DHT22;8317;52.186;5.688;2023-05-27T03:14:28;8.10;99.90
16417;DHT22;8317;52.186;5.688;2023-05-27T03:16:55;8.10;99.90
16417;DHT22;8317;52.186;5.688;2023-05-27T03:19:22;8.10;99.90
16417;DHT22;8317;52.186;5.688;2023-05-27T03:21:49;8.10;99.90
16417;DHT22;8317;52.186;5.688;2023-05-27T03:24:18;8.10;99.90
16417;DHT22;8317;52.186;5.688;2023-05-27T03:26:44;8.10;99.90
16417;DHT22;8317;52.186;5.688;2023-05-27T03:29:11;8.10;99.90
16417;DHT22;8317;52.186;5.688;2023-05-27T03:31:38;8.10;99.90
16417;DHT22;8317;52.186;5.688;2023-05-27T03:34:05;8.00;99.90
16417;DHT22;8317;52.186;5.688;2023-05-27T03:36:32;8.00;99.90
16417;DHT22;8317;52.186;5.688;2023-05-27T03:39:00;8.10;99.90
16417;DHT22;8317;52.186;5.688;2023-05-27T03:41:29;8.00;99.90
16417;DHT22;8317;52.186;5.688;2023-05-27T03:43:56;8.00;99.90
16417;DHT22;8317;52.186;5.688;2023-05-27T03:46:22;8.10;99.90
16417;DHT22;8317;52.186;5.688;2023-05-27T03:48:49;8.10;99.90
16417;DHT22;8317;52.186;5.688;2023-05-27T03:51:16;8.10;99.90
16417;DHT22;8317;52.186;5.688;2023-05-27T03:53:43;8.00;99.90
16417;DHT22;8317;52.186;5.688;2023-05-27T03:56:10;8.00;99.90
16417;DHT22;8317;52.186;5.688;2023-05-27T03:58:38;8.00;99.90
16417;DHT22;8317;52.186;5.688;2023-05-27T04:01:05;8.00;99.90
16417;DHT22;8317;52.186;5.688;2023-05-27T04:03:32;8.10;99.90
16417;DHT22;8317;52.186;5.688;2023-05-27T04:05:59;8.10;99.90
16417;DHT22;8317;52.186;5.688;2023-05-27T04:08:26;8.10;99.90
16417;DHT22;8317;52.186;5.688;2023-05-27T04:10:53;8.00;99.90
16417;DHT22;8317;52.186;5.688;2023-05-27T04:13:20;8.10;99.90
16417;DHT22;8317;52.186;5.688;2023-05-27T04:15:48;8.10;99.90
16417;DHT22;8317;52.186;5.688;2023-05-27T04:18:16;8.10;99.90
16417;DHT22;8317;52.186;5.688;2023-05-27T04:20:42;8.10;99.90
16417;DHT22;8317;52.186;5.688;2023-05-27T04:23:12;8.10;99.90
16417;DHT22;8317;52.186;5.688;2023-05-27T04:25:39;8.10;99.90
16417;DHT22;8317;52.186;5.688;2023-05-27T04:28:09;8.20;99.90
16417;DHT22;8317;52.186;5.688;2023-05-27T04:30:36;8.20;99.90
16417;DHT22;8317;52.186;5.688;2023-05-27T04:33:07;8.20;99.90
16417;DHT22;8317;52.186;5.688;2023-05-27T04:35:34;8.20;99.90
16417;DHT22;8317;52.186;5.688;2023-05-27T04:38:00;8.20;99.90
16417;DHT22;8317;52.186;5.688;2023-05-27T04:40:28;8.20;99.90
16417;DHT22;8317;52.186;5.688;2023-05-27T04:42:55;8.30;99.90
16417;DHT22;8317;52.186;5.688;2023-05-27T04:45:22;8.30;99.90
16417;DHT22;8317;52.186;5.688;2023-05-27T04:47:49;8.40;99.90
16417;DHT22;8317;52.186;5.688;2023-05-27T04:50:17;8.40;99.90
16417;DHT22;8317;52.186;5.688;2023-05-27T04:52:44;8.40;99.90
16417;DHT22;8317;52.186;5.688;2023-05-27T04:55:11;8.50;99.90
16417;DHT22;8317;52.186;5.688;2023-05-27T04:57:38;8.50;99.90
16417;DHT22;8317;52.186;5.688;2023-05-27T05:00:07;8.60;99.90
16417;DHT22;8317;52.186;5.688;2023-05-27T05:02:54;8.60;99.90
16417;DHT22;8317;52.186;5.688;2023-05-27T05:05:28;8.60;99.90
16417;DHT22;8317;52.186;5.688;2023-05-27T05:07:54;8.70;99.90
16417;DHT22;8317;52.186;5.688;2023-05-27T05:10:21;8.80;99.90
16417;DHT22;8317;52.186;5.688;2023-05-27T05:12:48;8.80;99.90
16417;DHT22;8317;52.186;5.688;2023-05-27T05:15:15;8.80;99.90
16417;DHT22;8317;52.186;5.688;2023-05-27T05:17:42;8.90;99.90
16417;DHT22;8317;52.186;5.688;2023-05-27T05:20:10;9.00;99.90
16417;DHT22;8317;52.186;5.688;2023-05-27T05:22:39;9.10;99.90
16417;DHT22;8317;52.186;5.688;2023-05-27T05:25:07;9.20;99.90
16417;DHT22;8317;52.186;5.688;2023-05-27T05:27:34;9.20;99.90
16417;DHT22;8317;52.186;5.688;2023-05-27T05:30:03;9.30;99.90
16417;DHT22;8317;52.186;5.688;2023-05-27T05:32:30;9.40;99.90
16417;DHT22;8317;52.186;5.688;2023-05-27T05:34:57;9.40;99.90
16417;DHT22;8317;52.186;5.688;2023-05-27T05:37:24;9.50;99.90
16417;DHT22;8317;52.186;5.688;2023-05-27T05:39:54;9.70;99.90
16417;DHT22;8317;52.186;5.688;2023-05-27T05:42:21;9.80;99.90
16417;DHT22;8317;52.186;5.688;2023-05-27T05:44:50;10.00;99.90
16417;DHT22;8317;52.186;5.688;2023-05-27T05:47:17;10.10;99.90
16417;DHT22;8317;52.186;5.688;2023-05-27T05:49:44;10.30;99.90
16417;DHT22;8317;52.186;5.688;2023-05-27T05:52:11;10.50;99.90
16417;DHT22;8317;52.186;5.688;2023-05-27T05:54:38;10.60;99.90
16417;DHT22;8317;52.186;5.688;2023-05-27T05:57:06;10.80;99.90
16417;DHT22;8317;52.186;5.688;2023-05-27T05:59:33;11.00;99.90
16417;DHT22;8317;52.186;5.688;2023-05-27T06:02:00;11.20;99.90
16417;DHT22;8317;52.186;5.688;2023-05-27T06:04:27;11.30;99.90
16417;DHT22;8317;52.186;5.688;2023-05-27T06:06:54;11.40;99.90
16417;DHT22;8317;52.186;5.688;2023-05-27T06:09:21;11.60;99.90
16417;DHT22;8317;52.186;5.688;2023-05-27T06:11:48;11.80;99.90
16417;DHT22;8317;52.186;5.688;2023-05-27T06:14:16;12.10;99.90
16417;DHT22;8317;52.186;5.688;2023-05-27T06:16:43;12.00;99.90
16417;DHT22;8317;52.186;5.688;2023-05-27T06:19:10;12.20;99.90
16417;DHT22;8317;52.186;5.688;2023-05-27T06:21:37;11.80;99.90
16417;DHT22;8317;52.186;5.688;2023-05-27T06:24:05;11.80;99.90
16417;DHT22;8317;52.186;5.688;2023-05-27T06:26:32;12.20;99.90
16417;DHT22;8317;52.186;5.688;2023-05-27T06:28:59;12.30;99.90
16417;DHT22;8317;52.186;5.688;2023-05-27T06:31:27;12.30;99.90
16417;DHT22;8317;52.186;5.688;2023-05-27T06:33:54;12.80;99.90
16417;DHT22;8317;52.186;5.688;2023-05-27T06:36:21;12.70;98.30
16417;DHT22;8317;52.186;5.688;2023-05-27T06:38:48;13.00;99.90
16417;DHT22;8317;52.186;5.688;2023-05-27T06:41:15;13.10;81.60
16417;DHT22;8317;52.186;5.688;2023-05-27T06:43:42;12.90;31.90
16417;DHT22;8317;52.186;5.688;2023-05-27T06:46:09;12.60;53.90
16417;DHT22;8317;52.186;5.688;2023-05-27T06:48:38;12.50;56.60
16417;DHT22;8317;52.186;5.688;2023-05-27T06:51:06;12.70;99.90
16417;DHT22;8317;52.186;5.688;2023-05-27T06:53:33;12.90;81.10
16417;DHT22;8317;52.186;5.688;2023-05-27T06:56:04;13.10;21.80
16417;DHT22;8317;52.186;5.688;2023-05-27T06:58:31;13.60;69.00
16417;DHT22;8317;52.186;5.688;2023-05-27T07:00:58;13.80;1.00
16417;DHT22;8317;52.186;5.688;2023-05-27T07:03:25;13.80;1.00
16417;DHT22;8317;52.186;5.688;2023-05-27T07:05:53;13.90;1.00
16417;DHT22;8317;52.186;5.688;2023-05-27T07:08:21;13.70;1.00
16417;DHT22;8317;52.186;5.688;2023-05-27T07:10:47;13.90;1.00
16417;DHT22;8317;52.186;5.688;2023-05-27T07:13:14;14.20;1.00
16417;DHT22;8317;52.186;5.688;2023-05-27T07:15:42;14.70;1.00
16417;DHT22;8317;52.186;5.688;2023-05-27T07:18:09;14.70;1.00
16417;DHT22;8317;52.186;5.688;2023-05-27T07:20:36;14.80;1.00
16417;DHT22;8317;52.186;5.688;2023-05-27T07:23:04;15.10;1.00
16417;DHT22;8317;52.186;5.688;2023-05-27T07:25:31;15.20;1.00
16417;DHT22;8317;52.186;5.688;2023-05-27T07:27:58;15.50;1.00
16417;DHT22;8317;52.186;5.688;2023-05-27T07:30:25;15.60;1.00
16417;DHT22;8317;52.186;5.688;2023-05-27T07:32:53;15.60;1.00
16417;DHT22;8317;52.186;5.688;2023-05-27T07:35:20;15.60;1.00
16417;DHT22;8317;52.186;5.688;2023-05-27T07:37:47;15.60;1.00
16417;DHT22;8317;52.186;5.688;2023-05-27T07:40:15;15.70;1.00
16417;DHT22;8317;52.186;5.688;2023-05-27T07:42:42;16.20;1.00
16417;DHT22;8317;52.186;5.688;2023-05-27T07:45:10;16.20;1.00
16417;DHT22;8317;52.186;5.688;2023-05-27T07:47:37;16.50;1.00
16417;DHT22;8317;52.186;5.688;2023-05-27T07:50:05;16.70;1.00
16417;DHT22;8317;52.186;5.688;2023-05-27T07:52:32;16.60;1.00
16417;DHT22;8317;52.186;5.688;2023-05-27T07:54:59;16.70;1.00
16417;DHT22;8317;52.186;5.688;2023-05-27T07:57:27;17.10;1.00
16417;DHT22;8317;52.186;5.688;2023-05-27T07:59:54;17.20;1.00
16417;DHT22;8317;52.186;5.688;2023-05-27T08:02:21;17.20;1.00
16417;DHT22;8317;52.186;5.688;2023-05-27T08:04:48;16.70;1.00
16417;DHT22;8317;52.186;5.688;2023-05-27T08:07:15;16.40;1.00
16417;DHT22;8317;52.186;5.688;2023-05-27T08:09:47;16.30;1.00
16417;DHT22;8317;52.186;5.688;2023-05-27T08:12:20;17.00;1.00
16417;DHT22;8317;52.186;5.688;2023-05-27T08:14:49;16.60;1.00
16417;DHT22;8317;52.186;5.688;2023-05-27T08:17:16;16.20;1.00
16417;DHT22;8317;52.186;5.688;2023-05-27T08:19:43;16.90;1.00
16417;DHT22;8317;52.186;5.688;2023-05-27T08:22:10;16.70;1.00
16417;DHT22;8317;52.186;5.688;2023-05-27T08:24:37;16.90;1.00
16417;DHT22;8317;52.186;5.688;2023-05-27T08:27:04;17.10;1.00
16417;DHT22;8317;52.186;5.688;2023-05-27T08:29:32;17.30;1.00
16417;DHT22;8317;52.186;5.688;2023-05-27T08:32:00;17.80;1.00
16417;DHT22;8317;52.186;5.688;2023-05-27T08:34:27;17.60;99.90
16417;DHT22;8317;52.186;5.688;2023-05-27T08:36:54;17.90;99.90
16417;DHT22;8317;52.186;5.688;2023-05-27T08:39:21;18.40;99.90
16417;DHT22;8317;52.186;5.688;2023-05-27T08:41:49;18.40;99.90
16417;DHT22;8317;52.186;5.688;2023-05-27T08:44:17;18.60;99.90
16417;DHT22;8317;52.186;5.688;2023-05-27T08:46:45;18.60;99.90
16417;DHT22;8317;52.186;5.688;2023-05-27T08:49:16;18.40;92.80
16417;DHT22;8317;52.186;5.688;2023-05-27T08:51:45;18.70;99.90
16417;DHT22;8317;52.186;5.688;2023-05-27T08:54:13;18.80;99.90
16417;DHT22;8317;52.186;5.688;2023-05-27T08:56:40;18.80;99.90
16417;DHT22;8317;52.186;5.688;2023-05-27T08:59:10;18.70;64.20
16417;DHT22;8317;52.186;5.688;2023-05-27T09:01:39;18.50;79.80
16417;DHT22;8317;52.186;5.688;2023-05-27T09:04:06;19.00;99.90
16417;DHT22;8317;52.186;5.688;2023-05-27T09:06:34;19.20;99.90
16417;DHT22;8317;52.186;5.688;2023-05-27T09:09:01;19.10;1.00
16417;DHT22;8317;52.186;5.688;2023-05-27T09:11:28;19.60;1.00
16417;DHT22;8317;52.186;5.688;2023-05-27T09:14:02;19.50;1.00
16417;DHT22;8317;52.186;5.688;2023-05-27T09:16:29;18.90;1.00
16417;DHT22;8317;52.186;5.688;2023-05-27T09:18:56;19.00;1.00
16417;DHT22;8317;52.186;5.688;2023-05-27T09:21:24;19.50;1.00
16417;DHT22;8317;52.186;5.688;2023-05-27T09:23:55;19.60;99.90
16417;DHT22;8317;52.186;5.688;2023-05-27T09:26:22;19.50;1.00
16417;DHT22;8317;52.186;5.688;2023-05-27T09:28:50;19.60;99.90
16417;DHT22;8317;52.186;5.688;2023-05-27T09:31:17;19.40;99.90
16417;DHT22;8317;52.186;5.688;2023-05-27T09:33:44;19.20;1.00
16417;DHT22;8317;52.186;5.688;2023-05-27T09:36:12;19.70;1.00
16417;DHT22;8317;52.186;5.688;2023-05-27T09:38:38;19.80;1.00
16417;DHT22;8317;52.186;5.688;2023-05-27T09:41:08;19.80;1.00
16417;DHT22;8317;52.186;5.688;2023-05-27T09:43:35;19.90;1.00
16417;DHT22;8317;52.186;5.688;2023-05-27T09:46:03;19.90;99.90
16417;DHT22;8317;52.186;5.688;2023-05-27T09:48:34;20.30;99.90
16417;DHT22;8317;52.186;5.688;2023-05-27T09:51:03;20.10;1.00
16417;DHT22;8317;52.186;5.688;2023-05-27T09:53:30;20.30;1.00
16417;DHT22;8317;52.186;5.688;2023-05-27T09:55:57;21.00;1.00
16417;DHT22;8317;52.186;5.688;2023-05-27T09:58:26;20.30;99.90
16417;DHT22;8317;52.186;5.688;2023-05-27T10:00:53;19.90;1.00
16417;DHT22;8317;52.186;5.688;2023-05-27T10:03:22;19.60;1.00
16417;DHT22;8317;52.186;5.688;2023-05-27T10:05:51;20.10;99.90
16417;DHT22;8317;52.186;5.688;2023-05-27T10:08:18;20.40;99.90
16417;DHT22;8317;52.186;5.688;2023-05-27T10:10:46;20.90;1.00
16417;DHT22;8317;52.186;5.688;2023-05-27T10:13:14;21.10;99.90
16417;DHT22;8317;52.186;5.688;2023-05-27T10:15:46;21.30;1.00
16417;DHT22;8317;52.186;5.688;2023-05-27T10:18:22;21.60;99.90
16417;DHT22;8317;52.186;5.688;2023-05-27T10:20:50;21.80;99.90
16417;DHT22;8317;52.186;5.688;2023-05-27T10:23:19;20.80;99.90
16417;DHT22;8317;52.186;5.688;2023-05-27T10:25:48;20.80;1.00
16417;DHT22;8317;52.186;5.688;2023-05-27T10:28:26;21.10;1.00
16417;DHT22;8317;52.186;5.688;2023-05-27T10:31:03;21.20;1.00
16417;DHT22;8317;52.186;5.688;2023-05-27T10:33:34;20.70;1.00
16417;DHT22;8317;52.186;5.688;2023-05-27T10:36:06;20.50;1.00
16417;DHT22;8317;52.186;5.688;2023-05-27T10:38:34;20.50;14.40
16417;DHT22;8317;52.186;5.688;2023-05-27T10:41:03;21.20;99.90
16417;DHT22;8317;52.186;5.688;2023-05-27T10:43:30;21.70;1.00
16417;DHT22;8317;52.186;5.688;2023-05-27T10:46:04;21.50;1.00
16417;DHT22;8317;52.186;5.688;2023-05-27T10:48:31;21.00;1.00
16417;DHT22;8317;52.186;5.688;2023-05-27T10:51:00;20.70;1.00
16417;DHT22;8317;52.186;5.688;2023-05-27T10:53:27;20.60;1.00
16417;DHT22;8317;52.186;5.688;2023-05-27T10:55:58;21.00;99.90
16417;DHT22;8317;52.186;5.688;2023-05-27T10:58:25;21.30;99.90
16417;DHT22;8317;52.186;5.688;2023-05-27T11:00:54;21.60;1.00
16417;DHT22;8317;52.186;5.688;2023-05-27T11:03:25;22.00;99.90
16417;DHT22;8317;52.186;5.688;2023-05-27T11:06:00;22.20;99.90
16417;DHT22;8317;52.186;5.688;2023-05-27T11:08:28;21.60;11.20
16417;DHT22;8317;52.186;5.688;2023-05-27T11:10:59;21.50;16.40
16417;DHT22;8317;52.186;5.688;2023-05-27T11:13:30;21.80;99.90
16417;DHT22;8317;52.186;5.688;2023-05-27T11:15:58;22.20;1.00
16417;DHT22;8317;52.186;5.688;2023-05-27T11:18:34;22.50;1.00
16417;DHT22;8317;52.186;5.688;2023-05-27T11:21:01;21.80;99.90
16417;DHT22;8317;52.186;5.688;2023-05-27T11:23:34;21.90;1.00
16417;DHT22;8317;52.186;5.688;2023-05-27T11:26:02;22.30;99.90
16417;DHT22;8317;52.186;5.688;2023-05-27T11:28:29;22.60;1.00
16417;DHT22;8317;52.186;5.688;2023-05-27T11:30:59;22.30;99.90
16417;DHT22;8317;52.186;5.688;2023-05-27T11:33:33;22.70;1.00
16417;DHT22;8317;52.186;5.688;2023-05-27T11:36:05;22.70;99.90
16417;DHT22;8317;52.186;5.688;2023-05-27T11:38:45;22.80;1.00
16417;DHT22;8317;52.186;5.688;2023-05-27T11:41:12;22.30;1.00
16417;DHT22;8317;52.186;5.688;2023-05-27T11:43:47;22.70;22.60
16417;DHT22;8317;52.186;5.688;2023-05-27T11:46:14;22.80;1.00
16417;DHT22;8317;52.186;5.688;2023-05-27T11:48:43;21.80;1.00
16417;DHT22;8317;52.186;5.688;2023-05-27T11:51:10;21.80;1.00
16417;DHT22;8317;52.186;5.688;2023-05-27T11:53:39;22.00;99.90
16417;DHT22;8317;52.186;5.688;2023-05-27T11:56:06;22.40;99.90
16417;DHT22;8317;52.186;5.688;2023-05-27T11:58:33;22.40;99.90
16417;DHT22;8317;52.186;5.688;2023-05-27T12:01:02;22.60;99.90
16417;DHT22;8317;52.186;5.688;2023-05-27T12:03:29;22.70;89.90
16417;DHT22;8317;52.186;5.688;2023-05-27T12:05:58;22.50;99.90
16417;DHT22;8317;52.186;5.688;2023-05-27T12:08:25;22.60;1.00
16417;DHT22;8317;52.186;5.688;2023-05-27T12:10:52;21.80;99.90
16417;DHT22;8317;52.186;5.688;2023-05-27T12:13:20;21.80;99.90
16417;DHT22;8317;52.186;5.688;2023-05-27T12:15:47;22.40;99.90
16417;DHT22;8317;52.186;5.688;2023-05-27T12:18:14;22.50;87.10
16417;DHT22;8317;52.186;5.688;2023-05-27T12:20:41;22.90;99.90
16417;DHT22;8317;52.186;5.688;2023-05-27T12:23:10;22.50;99.90
16417;DHT22;8317;52.186;5.688;2023-05-27T12:25:37;22.50;99.90
16417;DHT22;8317;52.186;5.688;2023-05-27T12:28:05;22.70;1.00
16417;DHT22;8317;52.186;5.688;2023-05-27T12:30:32;22.30;1.00
16417;DHT22;8317;52.186;5.688;2023-05-27T12:33:00;22.50;1.00
16417;DHT22;8317;52.186;5.688;2023-05-27T12:35:27;22.60;99.90
16417;DHT22;8317;52.186;5.688;2023-05-27T12:37:54;22.40;1.00
16417;DHT22;8317;52.186;5.688;2023-05-27T12:40:22;22.00;1.00
16417;DHT22;8317;52.186;5.688;2023-05-27T12:42:49;21.80;99.90
16417;DHT22;8317;52.186;5.688;2023-05-27T12:45:16;22.10;1.00
16417;DHT22;8317;52.186;5.688;2023-05-27T12:47:43;22.50;1.00
16417;DHT22;8317;52.186;5.688;2023-05-27T12:50:10;22.80;99.90
16417;DHT22;8317;52.186;5.688;2023-05-27T12:52:37;23.10;99.90
16417;DHT22;8317;52.186;5.688;2023-05-27T12:55:07;22.90;99.90
16417;DHT22;8317;52.186;5.688;2023-05-27T12:57:35;22.70;1.00
16417;DHT22;8317;52.186;5.688;2023-05-27T13:00:04;22.40;99.90
16417;DHT22;8317;52.186;5.688;2023-05-27T13:02:32;22.80;1.00
16417;DHT22;8317;52.186;5.688;2023-05-27T13:04:59;22.90;1.00
16417;DHT22;8317;52.186;5.688;2023-05-27T13:07:26;23.10;1.00
16417;DHT22;8317;52.186;5.688;2023-05-27T13:09:53;22.90;75.10
16417;DHT22;8317;52.186;5.688;2023-05-27T13:12:21;23.10;1.00
16417;DHT22;8317;52.186;5.688;2023-05-27T13:14:49;22.50;1.00
16417;DHT22;8317;52.186;5.688;2023-05-27T13:17:16;22.70;1.00
16417;DHT22;8317;52.186;5.688;2023-05-27T13:19:43;22.80;1.00
16417;DHT22;8317;52.186;5.688;2023-05-27T13:22:10;23.00;1.00
16417;DHT22;8317;52.186;5.688;2023-05-27T13:24:37;23.30;1.00
16417;DHT22;8317;52.186;5.688;2023-05-27T13:27:04;23.40;1.00
16417;DHT22;8317;52.186;5.688;2023-05-27T13:29:31;23.40;1.00
16417;DHT22;8317;52.186;5.688;2023-05-27T13:32:00;23.60;1.00
16417;DHT22;8317;52.186;5.688;2023-05-27T13:34:27;23.70;72.60
16417;DHT22;8317;52.186;5.688;2023-05-27T13:36:55;22.80;1.00
16417;DHT22;8317;52.186;5.688;2023-05-27T13:39:22;23.00;1.00
16417;DHT22;8317;52.186;5.688;2023-05-27T13:41:49;23.20;1.00
16417;DHT22;8317;52.186;5.688;2023-05-27T13:44:16;23.20;1.00
16417;DHT22;8317;52.186;5.688;2023-05-27T13:46:43;22.80;1.00
16417;DHT22;8317;52.186;5.688;2023-05-27T13:49:11;22.90;1.00
16417;DHT22;8317;52.186;5.688;2023-05-27T13:51:42;23.10;1.00
16417;DHT22;8317;52.186;5.688;2023-05-27T13:54:10;23.10;1.00
16417;DHT22;8317;52.186;5.688;2023-05-27T13:56:36;22.70;1.00
16417;DHT22;8317;52.186;5.688;2023-05-27T13:59:04;22.90;99.90
16417;DHT22;8317;52.186;5.688;2023-05-27T14:01:31;22.80;13.30
16417;DHT22;8317;52.186;5.688;2023-05-27T14:03:58;22.40;77.30
16417;DHT22;8317;52.186;5.688;2023-05-27T14:06:27;22.30;1.00
16417;DHT22;8317;52.186;5.688;2023-05-27T14:08:54;22.50;1.00
16417;DHT22;8317;52.186;5.688;2023-05-27T14:11:21;22.80;1.00
16417;DHT22;8317;52.186;5.688;2023-05-27T14:13:48;23.20;1.00
16417;DHT22;8317;52.186;5.688;2023-05-27T14:16:15;23.30;1.00
16417;DHT22;8317;52.186;5.688;2023-05-27T14:18:43;23.00;1.00
16417;DHT22;8317;52.186;5.688;2023-05-27T14:21:10;23.10;99.90
16417;DHT22;8317;52.186;5.688;2023-05-27T14:23:38;23.10;99.90
16417;DHT22;8317;52.186;5.688;2023-05-27T14:26:05;23.20;99.90
16417;DHT22;8317;52.186;5.688;2023-05-27T14:28:32;23.30;1.00
16417;DHT22;8317;52.186;5.688;2023-05-27T14:30:59;22.70;1.00
16417;DHT22;8317;52.186;5.688;2023-05-27T14:33:26;22.50;1.00
16417;DHT22;8317;52.186;5.688;2023-05-27T14:35:53;22.60;1.00
16417;DHT22;8317;52.186;5.688;2023-05-27T14:38:20;22.60;99.90
16417;DHT22;8317;52.186;5.688;2023-05-27T14:40:48;22.90;99.90
16417;DHT22;8317;52.186;5.688;2023-05-27T14:43:16;23.10;1.00
16417;DHT22;8317;52.186;5.688;2023-05-27T14:45:43;23.10;1.00
16417;DHT22;8317;52.186;5.688;2023-05-27T14:48:10;22.90;1.00
16417;DHT22;8317;52.186;5.688;2023-05-27T14:50:36;23.10;1.00
16417;DHT22;8317;52.186;5.688;2023-05-27T14:53:04;23.30;99.90
16417;DHT22;8317;52.186;5.688;2023-05-27T14:55:31;23.30;99.90
16417;DHT22;8317;52.186;5.688;2023-05-27T14:58:02;23.00;99.90
16417;DHT22;8317;52.186;5.688;2023-05-27T15:00:30;23.00;99.90
16417;DHT22;8317;52.186;5.688;2023-05-27T15:02:56;23.10;99.90
16417;DHT22;8317;52.186;5.688;2023-05-27T15:05:23;23.20;1.00
16417;DHT22;8317;52.186;5.688;2023-05-27T15:07:50;23.10;99.90
16417;DHT22;8317;52.186;5.688;2023-05-27T15:10:17;23.30;1.00
16417;DHT22;8317;52.186;5.688;2023-05-27T15:12:46;23.20;1.00
16417;DHT22;8317;52.186;5.688;2023-05-27T15:15:17;23.10;1.00
16417;DHT22;8317;52.186;5.688;2023-05-27T15:17:44;23.00;9.20
16417;DHT22;8317;52.186;5.688;2023-05-27T15:20:12;23.00;1.00
16417;DHT22;8317;52.186;5.688;2023-05-27T15:22:39;23.00;1.00
16417;DHT22;8317;52.186;5.688;2023-05-27T15:25:06;22.90;1.00
16417;DHT22;8317;52.186;5.688;2023-05-27T15:27:33;22.50;1.00
16417;DHT22;8317;52.186;5.688;2023-05-27T15:30:02;22.30;1.00
16417;DHT22;8317;52.186;5.688;2023-05-27T15:32:31;22.40;1.00
16417;DHT22;8317;52.186;5.688;2023-05-27T15:34:58;22.40;2.50
16417;DHT22;8317;52.186;5.688;2023-05-27T15:37:26;22.50;1.00
16417;DHT22;8317;52.186;5.688;2023-05-27T15:39:53;22.40;99.90
16417;DHT22;8317;52.186;5.688;2023-05-27T15:42:20;22.60;1.00
16417;DHT22;8317;52.186;5.688;2023-05-27T15:44:47;22.80;99.90
16417;DHT22;8317;52.186;5.688;2023-05-27T15:47:14;22.90;1.00
16417;DHT22;8317;52.186;5.688;2023-05-27T15:49:42;22.80;99.90
16417;DHT22;8317;52.186;5.688;2023-05-27T15:52:09;22.70;99.90
16417;DHT22;8317;52.186;5.688;2023-05-27T15:54:38;22.80;99.90
16417;DHT22;8317;52.186;5.688;2023-05-27T15:57:06;22.80;99.90
16417;DHT22;8317;52.186;5.688;2023-05-27T15:59:33;22.80;99.90
16417;DHT22;8317;52.186;5.688;2023-05-27T16:02:00;22.90;99.90